createdAt,value
2023-03-08T00:01:16.719Z,95906.00
2023-03-08T00:03:44.021Z,95926.00
2023-03-08T00:06:16.522Z,95915.00
2023-03-08T00:08:43.607Z,95920.00
2023-03-08T00:11:12.728Z,95920.00
2023-03-08T00:13:40.838Z,95916.00
2023-03-08T00:16:11.620Z,95896.00
2023-03-08T00:18:38.643Z,95906.00
2023-03-08T00:21:13.383Z,95919.00
2023-03-08T00:23:41.484Z,95899.00
2023-03-08T00:26:09.694Z,95917.00
2023-03-08T00:28:36.614Z,95916.00
2023-03-08T00:31:07.525Z,95914.00
2023-03-08T00:33:35.291Z,95918.00
2023-03-08T00:36:05.240Z,95915.00
2023-03-08T00:38:35.330Z,95903.00
2023-03-08T00:41:03.547Z,95893.00
2023-03-08T00:43:32.888Z,95892.00
2023-03-08T00:46:04.055Z,95891.00
2023-03-08T00:48:31.591Z,95894.00
2023-03-08T00:50:58.587Z,95903.00
2023-03-08T00:53:25.899Z,95896.00
2023-03-08T00:55:56.134Z,95914.00
2023-03-08T00:58:26.346Z,95896.00
2023-03-08T01:00:53.876Z,95901.00
2023-03-08T01:03:23.466Z,95907.00
2023-03-08T01:05:56.292Z,95907.00
2023-03-08T01:08:25.769Z,95885.00
2023-03-08T01:10:59.781Z,95891.00
2023-03-08T01:13:31.192Z,95892.00
2023-03-08T01:15:58.749Z,95876.00
2023-03-08T01:18:26.196Z,95889.00
2023-03-08T01:21:02.406Z,95887.00
2023-03-08T01:23:31.159Z,95868.00
2023-03-08T01:26:04.958Z,95877.00
2023-03-08T01:28:33.271Z,95872.00
2023-03-08T01:31:15.367Z,95881.00
2023-03-08T01:33:43.490Z,95864.00
2023-03-08T01:36:17.728Z,95870.00
2023-03-08T01:38:47.201Z,95857.00
2023-03-08T01:41:22.022Z,95860.00
2023-03-08T01:43:50.703Z,95847.00
2023-03-08T01:46:34.070Z,95860.00
2023-03-08T01:49:27.052Z,95848.00
2023-03-08T01:52:04.589Z,95843.00
2023-03-08T01:54:46.885Z,95838.00
2023-03-08T01:57:24.793Z,95850.00
2023-03-08T01:59:55.794Z,95842.00
2023-03-08T02:02:35.368Z,95836.00
2023-03-08T02:05:02.220Z,95839.00
2023-03-08T02:07:30.730Z,95840.00
2023-03-08T02:09:58.257Z,95823.00
2023-03-08T02:12:26.547Z,95814.00
2023-03-08T02:14:53.630Z,95819.00
2023-03-08T02:17:23.034Z,95837.00
2023-03-08T02:20:24.578Z,95841.00
2023-03-08T02:22:53.132Z,95831.00
2023-03-08T02:25:24.888Z,95814.00
2023-03-08T02:27:55.086Z,95803.00
2023-03-08T02:30:32.249Z,95805.00
2023-03-08T02:32:59.104Z,95802.00
2023-03-08T02:35:29.268Z,95801.00
2023-03-08T02:37:56.365Z,95797.00
2023-03-08T02:40:24.792Z,95793.00
2023-03-08T02:42:53.379Z,95796.00
2023-03-08T02:45:20.356Z,95768.00
2023-03-08T02:47:47.235Z,95781.00
2023-03-08T02:50:14.353Z,95777.00
2023-03-08T02:52:41.142Z,95782.00
2023-03-08T02:55:08.450Z,95791.00
2023-03-08T02:57:35.258Z,95789.00
2023-03-08T03:00:06.054Z,95789.00
2023-03-08T03:02:34.196Z,95785.00
2023-03-08T03:05:04.710Z,95786.00
2023-03-08T03:07:35.874Z,95791.00
2023-03-08T03:10:04.642Z,95777.00
2023-03-08T03:12:31.763Z,95780.00
2023-03-08T03:14:58.559Z,95772.00
2023-03-08T03:17:25.465Z,95778.00
2023-03-08T03:19:52.232Z,95783.00
2023-03-08T03:22:19.013Z,95758.00
2023-03-08T03:24:45.949Z,95767.00
2023-03-08T03:27:13.054Z,95761.00
2023-03-08T03:29:40.405Z,95754.00
2023-03-08T03:32:12.982Z,95737.00
2023-03-08T03:34:40.168Z,95753.00
2023-03-08T03:37:07.230Z,95755.00
2023-03-08T03:39:39.121Z,95753.00
2023-03-08T03:42:08.713Z,95749.00
2023-03-08T03:44:38.617Z,95757.00
2023-03-08T03:47:08.474Z,95739.00
2023-03-08T03:49:35.346Z,95755.00
2023-03-08T03:52:03.747Z,95742.00
2023-03-08T03:54:40.154Z,95735.00
2023-03-08T03:57:07.603Z,95743.00
2023-03-08T03:59:38.145Z,95727.00
2023-03-08T04:02:05.028Z,95724.00
2023-03-08T04:04:50.714Z,95738.00
2023-03-08T04:07:20.854Z,95739.00
2023-03-08T04:09:55.490Z,95740.00
2023-03-08T04:12:22.313Z,95736.00
2023-03-08T04:14:49.902Z,95721.00
2023-03-08T04:17:17.782Z,95717.00
2023-03-08T04:19:50.359Z,95720.00
2023-03-08T04:22:18.169Z,95710.00
2023-03-08T04:24:49.968Z,95710.00
2023-03-08T04:27:22.065Z,95704.00
2023-03-08T04:29:48.906Z,95701.00
2023-03-08T04:32:16.497Z,95705.00
2023-03-08T04:34:48.347Z,95689.00
2023-03-08T04:37:19.060Z,95697.00
2023-03-08T04:39:50.036Z,95681.00
2023-03-08T04:42:17.691Z,95689.00
2023-03-08T04:44:45.644Z,95697.00
2023-03-08T04:47:14.923Z,95687.00
2023-03-08T04:49:45.844Z,95676.00
2023-03-08T04:52:13.223Z,95670.00
2023-03-08T04:54:41.264Z,95671.00
2023-03-08T04:57:19.864Z,95663.00
2023-03-08T04:59:48.406Z,95671.00
2023-03-08T05:02:15.272Z,95656.00
2023-03-08T05:04:43.341Z,95648.00
2023-03-08T05:07:10.817Z,95649.00
2023-03-08T05:09:38.226Z,95629.00
2023-03-08T05:12:05.329Z,95624.00
2023-03-08T05:14:49.458Z,95627.00
2023-03-08T05:17:16.536Z,95611.00
2023-03-08T05:19:43.341Z,95619.00
2023-03-08T05:22:12.305Z,95621.00
2023-03-08T05:24:46.189Z,95633.00
2023-03-08T05:27:14.123Z,95622.00
2023-03-08T05:29:41.080Z,95646.00
2023-03-08T05:32:12.151Z,95615.00
2023-03-08T05:34:40.007Z,95610.00
2023-03-08T05:37:10.049Z,95617.00
2023-03-08T05:39:38.455Z,95605.00
2023-03-08T05:42:27.343Z,95602.00
2023-03-08T05:44:55.048Z,95612.00
2023-03-08T05:47:29.225Z,95589.00
2023-03-08T05:49:56.360Z,95593.00
2023-03-08T05:52:23.734Z,95575.00
2023-03-08T05:54:50.567Z,95592.00
2023-03-08T05:57:19.705Z,95576.00
2023-03-08T05:59:47.803Z,95572.00
2023-03-08T06:02:17.852Z,95577.00
2023-03-08T06:04:50.449Z,95560.00
2023-03-08T06:07:20.405Z,95558.00
2023-03-08T06:09:58.315Z,95559.00
2023-03-08T06:12:25.163Z,95573.00
2023-03-08T06:14:55.436Z,95577.00
2023-03-08T06:17:25.362Z,95558.00
2023-03-08T06:19:54.392Z,95547.00
2023-03-08T06:22:22.328Z,95548.00
2023-03-08T06:24:49.864Z,95558.00
2023-03-08T06:27:22.394Z,95537.00
2023-03-08T06:29:51.402Z,95537.00
2023-03-08T06:32:19.443Z,95531.00
2023-03-08T06:34:47.657Z,95531.00
2023-03-08T06:37:15.025Z,95521.00
2023-03-08T06:39:42.205Z,95527.00
2023-03-08T06:42:09.163Z,95513.00
2023-03-08T06:44:36.628Z,95513.00
2023-03-08T06:47:04.160Z,95511.00
2023-03-08T06:49:30.985Z,95479.00
2023-03-08T06:51:58.652Z,95490.00
2023-03-08T06:54:26.313Z,95491.00
2023-03-08T06:56:53.060Z,95487.00
2023-03-08T06:59:19.938Z,95493.00
2023-03-08T07:01:46.820Z,95476.00
2023-03-08T07:04:14.021Z,95475.00
2023-03-08T07:06:40.826Z,95468.00
2023-03-08T07:09:07.834Z,95461.00
2023-03-08T07:11:34.890Z,95464.00
2023-03-08T07:14:01.949Z,95453.00
2023-03-08T07:16:28.791Z,95434.00
2023-03-08T07:18:56.880Z,95439.00
2023-03-08T07:21:24.569Z,95440.00
2023-03-08T07:23:53.164Z,95421.00
2023-03-08T07:26:19.967Z,95432.00
2023-03-08T07:28:51.352Z,95430.00
2023-03-08T07:31:18.464Z,95418.00
2023-03-08T07:33:45.710Z,95420.00
2023-03-08T07:36:13.257Z,95417.00
2023-03-08T07:38:40.096Z,95407.00
2023-03-08T07:41:07.056Z,95416.00
2023-03-08T07:43:33.944Z,95402.00
2023-03-08T07:46:09.024Z,95404.00
2023-03-08T07:48:35.853Z,95407.00
2023-03-08T07:51:07.214Z,95400.00
2023-03-08T07:53:35.011Z,95400.00
2023-03-08T07:56:02.204Z,95382.00
2023-03-08T07:58:30.008Z,95395.00
2023-03-08T08:00:56.994Z,95388.00
2023-03-08T08:03:24.202Z,95387.00
2023-03-08T08:05:51.047Z,95390.00
2023-03-08T08:08:17.921Z,95376.00
2023-03-08T08:10:45.001Z,95381.00
2023-03-08T08:13:11.847Z,95366.00
2023-03-08T08:15:38.634Z,95365.00
2023-03-08T08:18:05.642Z,95373.00
2023-03-08T08:20:32.491Z,95365.00
2023-03-08T08:22:59.287Z,95357.00
2023-03-08T08:25:26.109Z,95347.00
2023-03-08T08:27:53.003Z,95358.00
2023-03-08T08:30:20.556Z,95358.00
2023-03-08T08:32:47.582Z,95347.00
2023-03-08T08:35:14.825Z,95341.00
2023-03-08T08:37:41.807Z,95348.00
2023-03-08T08:40:10.712Z,95339.00
2023-03-08T08:42:38.054Z,95344.00
2023-03-08T08:45:05.865Z,95323.00
2023-03-08T08:47:32.963Z,95311.00
2023-03-08T08:49:59.931Z,95319.00
2023-03-08T08:52:26.779Z,95313.00
2023-03-08T08:54:53.784Z,95313.00
2023-03-08T08:57:20.532Z,95314.00
2023-03-08T08:59:47.643Z,95309.00
2023-03-08T09:02:15.049Z,95306.00
2023-03-08T09:04:41.967Z,95324.00
2023-03-08T09:07:08.920Z,95291.00
2023-03-08T09:09:35.822Z,95274.00
2023-03-08T09:12:02.872Z,95304.00
2023-03-08T09:14:29.754Z,95297.00
2023-03-08T09:16:56.744Z,95294.00
2023-03-08T09:19:23.622Z,95287.00
2023-03-08T09:21:50.720Z,95291.00
2023-03-08T09:24:17.734Z,95280.00
2023-03-08T09:26:44.560Z,95269.00
2023-03-08T09:29:11.873Z,95274.00
2023-03-08T09:31:39.903Z,95268.00
2023-03-08T09:34:09.008Z,95260.00
2023-03-08T09:36:39.385Z,95247.00
2023-03-08T09:39:11.526Z,95255.00
2023-03-08T09:41:44.068Z,95249.00
2023-03-08T09:44:35.222Z,95242.00
2023-03-08T09:47:14.450Z,95232.00
2023-03-08T09:49:46.517Z,95233.00
2023-03-08T09:52:40.060Z,95228.00
2023-03-08T09:55:30.622Z,95238.00
2023-03-08T09:58:41.071Z,95241.00
2023-03-08T10:01:36.238Z,95240.00
2023-03-08T10:04:20.439Z,95223.00
2023-03-08T10:07:22.798Z,95229.00
2023-03-08T10:10:38.192Z,95227.00
2023-03-08T10:13:30.246Z,95217.00
2023-03-08T10:16:28.883Z,95223.00
2023-03-08T10:19:32.980Z,95207.00
2023-03-08T10:22:39.050Z,95202.00
2023-03-08T10:25:28.615Z,95211.00
2023-03-08T10:27:58.976Z,95198.00
2023-03-08T10:30:40.965Z,95201.00
2023-03-08T10:33:14.788Z,95208.00
2023-03-08T10:36:16.975Z,95202.00
2023-03-08T10:39:02.464Z,95206.00
2023-03-08T10:41:36.553Z,95207.00
2023-03-08T10:44:04.176Z,95211.00
2023-03-08T10:46:32.811Z,95214.00
2023-03-08T10:49:17.956Z,95191.00
2023-03-08T10:52:01.101Z,95201.00
2023-03-08T10:54:28.730Z,95187.00
2023-03-08T10:57:02.098Z,95182.00
2023-03-08T10:59:35.324Z,95187.00
2023-03-08T11:02:14.295Z,95188.00
2023-03-08T11:04:59.026Z,95181.00
2023-03-08T11:07:33.251Z,95191.00
2023-03-08T11:10:12.259Z,95194.00
2023-03-08T11:12:39.530Z,95202.00
2023-03-08T11:15:20.725Z,95202.00
2023-03-08T11:18:19.438Z,95188.00
2023-03-08T11:21:00.917Z,95174.00
2023-03-08T11:24:08.335Z,95192.00
2023-03-08T11:26:51.138Z,95190.00
2023-03-08T11:29:50.578Z,95168.00
2023-03-08T11:32:36.001Z,95163.00
2023-03-08T11:35:20.764Z,95162.00
2023-03-08T11:38:03.456Z,95170.00
2023-03-08T11:40:52.399Z,95151.00
2023-03-08T11:44:03.876Z,95157.00
2023-03-08T11:46:48.593Z,95129.00
2023-03-08T11:49:36.414Z,95134.00
2023-03-08T11:52:36.897Z,95133.00
2023-03-08T11:55:25.741Z,95147.00
2023-03-08T11:58:11.489Z,95140.00
2023-03-08T12:00:43.618Z,95138.00
2023-03-08T12:03:23.542Z,95132.00
2023-03-08T12:05:56.934Z,95131.00
2023-03-08T12:08:38.872Z,95125.00
2023-03-08T12:11:17.059Z,95131.00
2023-03-08T12:14:01.973Z,95119.00
2023-03-08T12:17:24.832Z,95122.00
2023-03-08T12:19:52.078Z,95142.00
2023-03-08T12:23:00.905Z,95134.00
2023-03-08T12:25:34.683Z,95145.00
2023-03-08T12:28:24.375Z,95131.00
2023-03-08T12:31:35.761Z,95129.00
2023-03-08T12:34:37.806Z,95143.00
2023-03-08T12:37:05.606Z,95136.00
2023-03-08T12:39:36.535Z,95119.00
2023-03-08T12:42:16.667Z,95128.00
2023-03-08T12:44:43.946Z,95127.00
2023-03-08T12:47:13.865Z,95114.00
2023-03-08T12:49:46.305Z,95106.00
2023-03-08T12:52:18.973Z,95096.00
2023-03-08T12:55:20.861Z,95109.00
2023-03-08T12:57:54.352Z,95109.00
2023-03-08T13:00:25.393Z,95099.00
2023-03-08T13:03:04.315Z,95112.00
2023-03-08T13:05:37.948Z,95105.00
2023-03-08T13:08:15.053Z,95098.00
2023-03-08T13:10:50.789Z,95102.00
2023-03-08T13:13:39.183Z,95107.00
2023-03-08T13:16:39.560Z,95088.00
2023-03-08T13:19:15.293Z,95085.00
2023-03-08T13:22:14.463Z,95082.00
2023-03-08T13:24:51.027Z,95091.00
2023-03-08T13:27:51.785Z,95084.00
2023-03-08T13:31:00.693Z,95098.00
2023-03-08T13:33:37.678Z,95087.00
2023-03-08T13:36:21.626Z,95101.00
2023-03-08T13:39:23.213Z,95088.00
2023-03-08T13:41:50.549Z,95070.00
2023-03-08T13:44:24.520Z,95071.00
2023-03-08T13:47:00.486Z,95068.00
2023-03-08T13:49:37.027Z,95070.00
2023-03-08T13:52:16.929Z,95067.00
2023-03-08T13:54:51.489Z,95079.00
2023-03-08T13:57:29.100Z,95081.00
2023-03-08T14:00:01.841Z,95080.00
2023-03-08T14:02:32.675Z,95067.00
2023-03-08T14:04:59.769Z,95073.00
2023-03-08T14:07:32.080Z,95053.00
2023-03-08T14:09:59.085Z,95060.00
2023-03-08T14:12:33.496Z,95063.00
2023-03-08T14:15:06.319Z,95044.00
2023-03-08T14:17:35.880Z,95050.00
2023-03-08T14:20:18.943Z,95031.00
2023-03-08T14:22:52.094Z,95048.00
2023-03-08T14:25:32.315Z,95057.00
2023-03-08T14:27:59.392Z,95051.00
2023-03-08T14:30:31.140Z,95043.00
2023-03-08T14:33:19.183Z,95056.00
2023-03-08T14:35:58.488Z,95052.00
2023-03-08T14:38:32.653Z,95057.00
2023-03-08T14:41:06.398Z,95053.00
2023-03-08T14:43:33.963Z,95039.00
2023-03-08T14:46:09.437Z,95038.00
2023-03-08T14:48:38.538Z,95029.00
2023-03-08T14:51:27.234Z,95027.00
2023-03-08T14:54:19.312Z,95028.00
2023-03-08T14:56:47.091Z,95034.00
2023-03-08T14:59:25.224Z,95013.00
2023-03-08T15:01:54.106Z,95007.00
2023-03-08T15:04:24.752Z,95005.00
2023-03-08T15:06:54.494Z,95003.00
2023-03-08T15:09:23.047Z,95004.00
2023-03-08T15:11:54.136Z,95004.00
2023-03-08T15:14:21.243Z,94999.00
2023-03-08T15:16:48.132Z,95003.00
2023-03-08T15:19:14.983Z,94998.00
2023-03-08T15:21:42.568Z,94995.00
2023-03-08T15:24:19.498Z,95008.00
2023-03-08T15:26:46.627Z,95025.00
2023-03-08T15:29:32.883Z,95017.00
2023-03-08T15:32:00.410Z,95025.00
2023-03-08T15:34:28.577Z,95017.00
2023-03-08T15:36:56.106Z,95019.00
2023-03-08T15:39:23.341Z,95014.00
2023-03-08T15:41:50.187Z,95012.00
2023-03-08T15:44:17.016Z,95012.00
2023-03-08T15:46:43.801Z,95000.00
2023-03-08T15:49:11.154Z,95014.00
2023-03-08T15:51:38.335Z,95005.00
2023-03-08T15:54:06.901Z,94998.00
2023-03-08T15:56:34.204Z,94998.00
2023-03-08T15:59:01.195Z,94987.00
2023-03-08T16:01:28.077Z,94992.00
2023-03-08T16:03:56.957Z,94996.00
2023-03-08T16:06:25.198Z,94987.00
2023-03-08T16:08:52.044Z,94993.00
2023-03-08T16:11:22.712Z,94985.00
2023-03-08T16:13:52.234Z,94993.00
2023-03-08T16:16:20.292Z,94993.00
2023-03-08T16:18:48.425Z,95002.00
2023-03-08T16:21:15.686Z,95001.00
2023-03-08T16:23:42.883Z,95003.00
2023-03-08T16:26:16.772Z,94998.00
2023-03-08T16:28:46.918Z,94996.00
2023-03-08T16:31:15.965Z,94991.00
2023-03-08T16:33:42.849Z,94992.00
2023-03-08T16:36:11.375Z,95015.00
2023-03-08T16:38:38.519Z,95011.00
2023-03-08T16:41:12.695Z,95007.00
2023-03-08T16:43:47.266Z,95018.00
2023-03-08T16:46:18.182Z,95013.00
2023-03-08T16:48:45.443Z,95006.00
2023-03-08T16:51:15.046Z,95016.00
2023-03-08T16:53:42.166Z,95010.00
2023-03-08T16:56:10.890Z,95020.00
2023-03-08T16:58:37.692Z,95003.00
2023-03-08T17:01:12.273Z,95004.00
2023-03-08T17:03:39.402Z,95004.00
2023-03-08T17:06:12.767Z,95028.00
2023-03-08T17:08:40.580Z,95011.00
2023-03-08T17:11:16.799Z,95011.00
2023-03-08T17:13:47.500Z,95000.00
2023-03-08T17:16:14.555Z,94999.00
2023-03-08T17:18:41.382Z,95002.00
2023-03-08T17:21:09.759Z,94995.00
2023-03-08T17:23:37.206Z,94988.00
2023-03-08T17:26:06.688Z,95009.00
2023-03-08T17:28:35.036Z,95001.00
2023-03-08T17:31:07.317Z,94990.00
2023-03-08T17:33:34.138Z,95007.00
2023-03-08T17:36:02.092Z,94988.00
2023-03-08T17:38:29.253Z,95004.00
2023-03-08T17:40:56.124Z,94992.00
2023-03-08T17:43:23.069Z,94987.00
2023-03-08T17:46:05.758Z,94999.00
2023-03-08T17:48:34.092Z,94994.00
2023-03-08T17:51:10.195Z,94993.00
2023-03-08T17:53:38.140Z,94994.00
2023-03-08T17:56:11.657Z,94983.00
2023-03-08T17:58:38.827Z,94993.00
2023-03-08T18:01:12.982Z,95007.00
2023-03-08T18:03:40.448Z,94991.00
2023-03-08T18:06:08.956Z,94998.00
2023-03-08T18:08:36.441Z,94988.00
2023-03-08T18:11:03.727Z,94997.00
2023-03-08T18:13:30.499Z,95008.00
2023-03-08T18:15:57.529Z,94997.00
2023-03-08T18:18:24.647Z,95006.00
2023-03-08T18:20:52.128Z,94997.00
2023-03-08T18:23:20.448Z,95008.00
2023-03-08T18:25:47.478Z,95012.00
2023-03-08T18:28:14.874Z,95012.00
2023-03-08T18:30:42.113Z,95011.00
2023-03-08T18:33:10.291Z,94999.00
2023-03-08T18:35:37.374Z,95006.00
2023-03-08T18:38:04.396Z,94999.00
2023-03-08T18:40:31.459Z,95015.00
2023-03-08T18:42:58.486Z,95003.00
2023-03-08T18:45:25.307Z,94982.00
2023-03-08T18:47:52.800Z,94999.00
2023-03-08T18:50:20.162Z,95007.00
2023-03-08T18:52:47.219Z,94994.00
2023-03-08T18:55:14.358Z,94988.00
2023-03-08T18:57:41.729Z,94991.00
2023-03-08T19:00:11.740Z,94982.00
2023-03-08T19:02:39.638Z,95007.00
2023-03-08T19:05:07.559Z,94998.00
2023-03-08T19:07:34.670Z,94995.00
2023-03-08T19:10:01.757Z,95004.00
2023-03-08T19:12:30.022Z,94994.00
2023-03-08T19:14:57.087Z,94987.00
2023-03-08T19:17:23.839Z,94985.00
2023-03-08T19:19:50.693Z,94998.00
2023-03-08T19:22:17.737Z,94981.00
2023-03-08T19:24:44.616Z,94992.00
2023-03-08T19:27:13.650Z,94990.00
2023-03-08T19:29:40.504Z,94992.00
2023-03-08T19:32:10.791Z,94994.00
2023-03-08T19:34:44.705Z,95013.00
2023-03-08T19:37:13.946Z,95020.00
2023-03-08T19:39:43.559Z,95003.00
2023-03-08T19:42:15.189Z,94996.00
2023-03-08T19:44:44.212Z,94995.00
2023-03-08T19:47:11.140Z,95004.00
2023-03-08T19:49:39.901Z,94990.00
2023-03-08T19:52:07.423Z,94997.00
2023-03-08T19:54:35.212Z,94999.00
2023-03-08T19:57:03.074Z,94995.00
2023-03-08T19:59:29.942Z,94980.00
2023-03-08T20:01:57.106Z,94981.00
2023-03-08T20:04:25.000Z,94994.00
2023-03-08T20:06:52.582Z,94987.00
2023-03-08T20:09:23.973Z,94984.00
2023-03-08T20:11:57.176Z,94993.00
2023-03-08T20:14:27.063Z,94986.00
2023-03-08T20:16:54.986Z,94971.00
2023-03-08T20:19:22.121Z,94991.00
2023-03-08T20:21:49.133Z,94970.00
2023-03-08T20:24:18.403Z,94998.00
2023-03-08T20:26:45.767Z,94998.00
2023-03-08T20:29:12.622Z,94981.00
2023-03-08T20:31:39.667Z,94982.00
2023-03-08T20:34:06.491Z,94986.00
2023-03-08T20:36:33.423Z,94984.00
2023-03-08T20:39:00.740Z,94979.00
2023-03-08T20:41:28.405Z,94996.00
2023-03-08T20:43:55.758Z,94972.00
2023-03-08T20:46:27.668Z,94985.00
2023-03-08T20:48:54.584Z,94973.00
2023-03-08T20:51:24.154Z,94985.00
2023-03-08T20:53:54.364Z,94969.00
2023-03-08T20:56:23.799Z,94969.00
2023-03-08T20:58:54.272Z,94977.00
2023-03-08T21:01:26.530Z,94973.00
2023-03-08T21:03:53.378Z,94977.00
2023-03-08T21:06:24.956Z,94976.00
2023-03-08T21:08:53.148Z,94973.00
2023-03-08T21:11:20.903Z,94981.00
2023-03-08T21:13:50.550Z,94967.00
2023-03-08T21:16:20.813Z,94961.00
2023-03-08T21:18:53.725Z,94959.00
2023-03-08T21:21:38.386Z,94977.00
2023-03-08T21:24:18.139Z,94956.00
2023-03-08T21:26:46.038Z,94962.00
2023-03-08T21:29:17.194Z,94964.00
2023-03-08T21:31:51.648Z,94966.00
2023-03-08T21:34:20.577Z,94955.00
2023-03-08T21:36:47.649Z,94955.00
2023-03-08T21:39:15.331Z,94947.00
2023-03-08T21:41:45.972Z,94948.00
2023-03-08T21:44:19.895Z,94954.00
2023-03-08T21:46:47.805Z,94950.00
2023-03-08T21:49:24.323Z,94939.00
2023-03-08T21:51:53.528Z,94942.00
2023-03-08T21:54:22.332Z,94939.00
2023-03-08T21:56:49.559Z,94940.00
2023-03-08T21:59:17.174Z,94936.00
2023-03-08T22:01:48.657Z,94927.00
2023-03-08T22:04:16.495Z,94925.00
2023-03-08T22:06:43.789Z,94917.00
2023-03-08T22:09:11.074Z,94909.00
2023-03-08T22:11:38.642Z,94929.00
2023-03-08T22:14:06.305Z,94918.00
2023-03-08T22:16:37.607Z,94931.00
2023-03-08T22:19:05.074Z,94903.00
2023-03-08T22:21:32.391Z,94913.00
2023-03-08T22:24:02.258Z,94907.00
2023-03-08T22:26:30.935Z,94895.00
2023-03-08T22:28:58.665Z,94893.00
2023-03-08T22:31:28.637Z,94907.00
2023-03-08T22:33:55.831Z,94884.00
2023-03-08T22:36:23.358Z,94897.00
2023-03-08T22:38:50.621Z,94873.00
2023-03-08T22:41:25.197Z,94883.00
2023-03-08T22:43:53.352Z,94883.00
2023-03-08T22:46:24.305Z,94882.00
2023-03-08T22:48:52.478Z,94886.00
2023-03-08T22:51:22.212Z,94880.00
2023-03-08T22:53:50.057Z,94876.00
2023-03-08T22:56:26.008Z,94871.00
2023-03-08T22:58:53.162Z,94883.00
2023-03-08T23:01:23.077Z,94870.00
2023-03-08T23:03:53.548Z,94868.00
2023-03-08T23:06:20.600Z,94847.00
2023-03-08T23:08:47.765Z,94857.00
2023-03-08T23:11:15.285Z,94857.00
2023-03-08T23:13:43.152Z,94860.00
2023-03-08T23:16:14.674Z,94855.00
2023-03-08T23:18:42.285Z,94858.00
2023-03-08T23:21:14.134Z,94857.00
2023-03-08T23:23:41.561Z,94860.00
2023-03-08T23:26:13.322Z,94855.00
2023-03-08T23:28:40.445Z,94859.00
2023-03-08T23:31:13.082Z,94853.00
2023-03-08T23:33:40.665Z,94862.00
2023-03-08T23:36:10.250Z,94857.00
2023-03-08T23:38:37.495Z,94853.00
2023-03-08T23:41:07.042Z,94849.00
2023-03-08T23:43:35.483Z,94848.00
2023-03-08T23:46:08.322Z,94836.00
2023-03-08T23:48:35.658Z,94833.00
2023-03-08T23:51:09.161Z,94838.00
2023-03-08T23:53:36.822Z,94839.00
2023-03-08T23:56:05.114Z,94826.00
2023-03-08T23:58:32.282Z,94840.00
